Terminal Aerodrome Forecast
Issued by NWS

Home | Current Version | Previous Version | Text Only | Print | Product List | Glossary On
Versions: 1 2 3 4 5 6 7 8 9 10 11 12 13 14 15 16 17 18
358
FTUS41 KBTV 291136
TAFMPV
TAF
KMPV 291136Z 2912/3012 VRB03KT 1/4SM FG VV001
      TEMPO 2912/2913 6SM BR SCT001 SCT250
     FM291300 VRB03KT P6SM SCT250
     FM291500 10008KT P6SM FEW035 SCT250
     FM300000 VRB03KT P6SM BKN150 BKN200=

USA.gov is the U.S. government's official web portal to all federal, state and local government web resources and services.